map of TOY home
TOY - Airport
Location
City:  Toyama, Toyama, Japan
Name:Toyama Airport
ICAO:RJNT
IATA:TOY

Details
Type:Airport (Aerodrome, Airfield)
Latitude:3638'54"N (36.648333)
Longitude:13711'15"E (137.187500)
Datum:WGS 1984
Elevation:95 ft (29 m)
Variation:8.21W (WMM2015v2 magnetic declination)
-0.07 annual change
Runways:1
Longest:6562 × 150 ft (2000 × 45.5 m), paved

Time
Time Zone:UTC+9
Local Time:

Weather
METAR:RJNT 041200Z VRB02KT 9999 -SHRA FEW010 SCT020 BKN030 04/02 Q1023
TAF:RJNT 041105Z 0412/0518 18004KT 9999 FEW015 BKN030
BECMG 0503/0506 36005KT
BECMG 0512/0515 18012KT

Related Locations
Nearby:
Farthest:SSMT: 11836 mi / 19049 km
Mostardas, RS, BR

Find:

   beyond  
but within

Other Information
Maps:
NOTAMs:
Links:
Sources:

  
  • flag of Japan
  • flag of Toyama
  

Sectional Chart

Flight Planning
at skyvector.com

Satellite Image

Google Maps Satellite view

 

Copyright © 2004-2019 Karl L. Swartz. All rights reserved.
The Great Circle Mapper name and logo are trademarks of the Great Circle Mapper.
All other trademarks mentioned herein belong to their respective owners.
Please see credits for attibutions and further copyright information.

  Follow gcmap on Facebook Follow gcmap on Twitter GCmap on LinkedIn

hCard Microformat

Geo Microformat